ヘルシンキ/ヴァンター の空港の天気 - METARとTAF

ヘルシンキ・ヴァンター国際空港 ( EFHK / HEL ) - フィンランド ヴァンター
飛行場実況気象(Metar)
観測時間08/11 09:50 EEST (08/11 06:50 UTC)
風向・風速北北西 5m/s
視程10km以上
天気現象
少しの雲 雲底高度 910m
気温16℃
湿度68%
気圧1024hPa
METAREFHK 110650Z 34010KT 9999 FEW030 16/10 Q1024 NOSIG
過去の天気等 Google飛行場航空写真 Wunderground天気予報

過去48時間のMETAR

飛行場予報(TAF)
発表時間: 8/11 08:24 EEST (8/11 05:24 UTC)
予報対象時間: 11日9時 EEST ~ 12日9時 EEST
風向・風速北 5m/s
視程10km以上
少しの雲 雲底高度 1220m
TAF EFHK 110524Z 1106/1206 35010KT 9999 FEW040